createdAt,value
2022-11-06T00:03:26.915Z,84
2022-11-06T00:08:28.941Z,85
2022-11-06T00:13:30.200Z,85
2022-11-06T00:18:32.174Z,85
2022-11-06T00:23:34.068Z,86
2022-11-06T00:28:36.021Z,85
2022-11-06T00:33:37.726Z,85
2022-11-06T00:38:39.247Z,85
2022-11-06T00:43:40.498Z,85
2022-11-06T00:48:42.352Z,85
2022-11-06T00:53:44.446Z,85
2022-11-06T00:58:46.029Z,85
2022-11-06T01:03:47.723Z,85
2022-11-06T01:08:48.872Z,85
2022-11-06T01:13:50.262Z,86
2022-11-06T01:18:52.259Z,86
2022-11-06T01:23:54.413Z,86
2022-11-06T01:28:56.512Z,86
2022-11-06T01:33:57.956Z,87
2022-11-06T01:38:59.732Z,86
2022-11-06T01:44:01.472Z,87
2022-11-06T01:49:03.124Z,88
2022-11-06T01:54:04.369Z,88
2022-11-06T01:59:06.539Z,88
2022-11-06T02:04:08.114Z,88
2022-11-06T02:09:09.632Z,88
2022-11-06T02:14:11.650Z,87
2022-11-06T02:19:13.647Z,87
2022-11-06T02:24:14.954Z,86
2022-11-06T02:29:16.160Z,87
2022-11-06T02:34:17.325Z,86
2022-11-06T02:39:19.071Z,85
2022-11-06T02:44:21.370Z,85
2022-11-06T02:49:23.163Z,85
2022-11-06T02:54:24.673Z,85
2022-11-06T02:59:26.075Z,85
2022-11-06T03:04:27.750Z,85
2022-11-06T03:09:29.398Z,84
2022-11-06T03:14:31.394Z,84
2022-11-06T03:19:32.717Z,85
2022-11-06T03:24:34.668Z,85
2022-11-06T03:29:36.831Z,84
2022-11-06T03:34:38.354Z,83
2022-11-06T03:39:39.519Z,83
2022-11-06T03:44:41.027Z,84
2022-11-06T03:49:42.482Z,83
2022-11-06T03:54:44.166Z,83
2022-11-06T03:59:46.347Z,84
2022-11-06T04:04:47.697Z,84
2022-11-06T04:09:49.082Z,84
2022-11-06T04:14:50.670Z,85
2022-11-06T04:19:52.465Z,86
2022-11-06T04:24:54.154Z,86
2022-11-06T04:29:55.454Z,87
2022-11-06T04:34:57.487Z,89
2022-11-06T04:39:58.775Z,90
2022-11-06T04:45:00.640Z,90
2022-11-06T04:50:01.996Z,89
2022-11-06T04:55:03.562Z,91
2022-11-06T05:00:04.940Z,91
2022-11-06T05:05:06.649Z,91
2022-11-06T05:10:08.774Z,91
2022-11-06T05:15:10.418Z,92
2022-11-06T05:20:11.695Z,91
2022-11-06T05:25:12.902Z,92
2022-11-06T05:30:14.870Z,92
2022-11-06T05:35:16.974Z,93
2022-11-06T05:40:18.296Z,93
2022-11-06T05:45:20.302Z,94
2022-11-06T05:50:21.912Z,95
2022-11-06T05:55:23.959Z,96
2022-11-06T06:00:25.442Z,96
2022-11-06T06:05:27.443Z,95
2022-11-06T06:10:29.275Z,95
2022-11-06T06:15:30.997Z,95
2022-11-06T06:20:32.955Z,95
2022-11-06T06:25:34.584Z,96
2022-11-06T06:30:36.285Z,96
2022-11-06T06:35:37.426Z,96
2022-11-06T06:40:39.337Z,96
2022-11-06T06:45:41.039Z,96
2022-11-06T06:50:42.583Z,96
2022-11-06T06:55:43.975Z,96
2022-11-06T07:00:46.276Z,95
2022-11-06T07:05:47.621Z,95
2022-11-06T07:10:48.768Z,94
2022-11-06T07:15:50.677Z,95
2022-11-06T07:20:52.159Z,95
2022-11-06T07:25:53.602Z,95
2022-11-06T07:30:54.860Z,95
2022-11-06T07:35:56.212Z,95
2022-11-06T07:40:57.677Z,96
2022-11-06T07:45:59.229Z,96
2022-11-06T07:51:00.893Z,97
2022-11-06T07:56:02.861Z,99
2022-11-06T08:01:04.259Z,99
2022-11-06T08:06:05.647Z,98
2022-11-06T08:11:07.551Z,98
2022-11-06T08:16:09.352Z,99
2022-11-06T08:21:11.175Z,98
2022-11-06T08:26:19.044Z,98
2022-11-06T08:41:24.143Z,98
2022-11-06T08:46:26.101Z,98
2022-11-06T08:51:27.731Z,98
2022-11-06T08:56:29.328Z,98
2022-11-06T09:06:32.383Z,97
2022-11-06T09:11:33.957Z,95
2022-11-06T09:16:35.499Z,94
2022-11-06T09:21:36.580Z,93
2022-11-06T09:26:38.716Z,93
2022-11-06T09:36:42.546Z,92
2022-11-06T09:41:44.176Z,93
2022-11-06T09:46:45.797Z,92
2022-11-06T09:51:47.324Z,91
2022-11-06T09:56:48.828Z,91
2022-11-06T10:01:50.306Z,85
2022-11-06T10:06:51.976Z,83
2022-11-06T10:11:53.382Z,78
2022-11-06T10:16:55.441Z,78
2022-11-06T10:21:56.633Z,75
2022-11-06T10:26:58.275Z,73
2022-11-06T10:31:59.504Z,75
2022-11-06T10:37:01.508Z,74
2022-11-06T10:42:03.015Z,75
2022-11-06T10:47:04.587Z,69
2022-11-06T10:52:05.799Z,66
2022-11-06T10:57:07.158Z,64
2022-11-06T11:02:09.405Z,62
2022-11-06T11:07:10.682Z,62
2022-11-06T11:12:12.775Z,63
2022-11-06T11:17:14.673Z,64
2022-11-06T11:22:16.593Z,66
2022-11-06T11:27:17.797Z,65
2022-11-06T11:32:19.119Z,66
2022-11-06T11:37:20.623Z,68
2022-11-06T11:42:22.257Z,68
2022-11-06T11:47:23.950Z,68
2022-11-06T11:52:25.540Z,67
2022-11-06T11:57:27.480Z,68
2022-11-06T12:02:29.953Z,66
2022-11-06T12:07:31.334Z,66
2022-11-06T12:12:33.190Z,66
2022-11-06T12:17:34.601Z,67
2022-11-06T12:22:36.092Z,67
2022-11-06T12:27:37.553Z,68
2022-11-06T12:32:39.311Z,69
2022-11-06T12:37:40.604Z,68
2022-11-06T12:42:42.582Z,69
2022-11-06T12:47:43.918Z,69
2022-11-06T12:52:45.222Z,68
2022-11-06T12:57:47.018Z,68
2022-11-06T13:02:48.357Z,68
2022-11-06T13:07:50.397Z,68
2022-11-06T13:12:51.662Z,68
2022-11-06T13:17:53.289Z,66
2022-11-06T13:22:54.542Z,65
2022-11-06T13:27:56.377Z,66
2022-11-06T13:32:58.268Z,64
2022-11-06T13:37:59.369Z,63
2022-11-06T13:43:01.507Z,64
2022-11-06T13:48:03.546Z,68
2022-11-06T13:53:05.106Z,69
2022-11-06T13:58:06.376Z,69
2022-11-06T14:03:08.321Z,70
2022-11-06T14:08:09.941Z,70
2022-11-06T14:13:11.454Z,71
2022-11-06T14:18:12.952Z,70
2022-11-06T14:23:14.539Z,70
2022-11-06T14:28:16.713Z,70
2022-11-06T14:33:18.113Z,71
2022-11-06T14:38:20.109Z,72
2022-11-06T14:43:21.658Z,71
2022-11-06T14:48:23.193Z,71
2022-11-06T14:53:24.835Z,72
2022-11-06T14:58:26.290Z,72
2022-11-06T15:03:28.419Z,72
2022-11-06T15:08:29.747Z,72
2022-11-06T15:13:31.252Z,73
2022-11-06T15:18:32.697Z,73
2022-11-06T15:23:33.958Z,73
2022-11-06T15:28:36.021Z,73
2022-11-06T15:33:38.162Z,73
2022-11-06T15:38:39.872Z,73
2022-11-06T15:43:41.641Z,74
2022-11-06T15:48:43.829Z,74
2022-11-06T15:53:45.216Z,74
2022-11-06T15:58:47.217Z,74
2022-11-06T16:03:48.457Z,75
2022-11-06T16:08:49.811Z,74
2022-11-06T16:13:51.213Z,74
2022-11-06T16:18:53.262Z,75
2022-11-06T16:23:55.153Z,75
2022-11-06T16:28:56.483Z,75
2022-11-06T16:33:58.095Z,76
2022-11-06T16:38:59.691Z,76
2022-11-06T16:44:01.263Z,76
2022-11-06T16:49:02.516Z,76
2022-11-06T16:54:04.220Z,77
2022-11-06T16:59:05.725Z,77
2022-11-06T17:04:07.116Z,78
2022-11-06T17:09:09.789Z,78
2022-11-06T17:14:10.777Z,79
2022-11-06T17:19:12.301Z,79
2022-11-06T17:24:40.490Z,79
2022-11-06T17:29:19.549Z,80
2022-11-06T17:34:17.450Z,80
2022-11-06T17:39:19.102Z,80
2022-11-06T17:44:20.285Z,81
2022-11-06T17:49:22.470Z,82
2022-11-06T17:54:24.028Z,81
2022-11-06T17:59:25.736Z,81
2022-11-06T18:04:27.522Z,81
2022-11-06T18:09:29.260Z,81
2022-11-06T18:14:30.932Z,81
2022-11-06T18:19:33.236Z,82
2022-11-06T18:24:34.284Z,83
2022-11-06T18:29:35.502Z,82
2022-11-06T18:34:37.764Z,82
2022-11-06T18:39:39.446Z,83
2022-11-06T18:44:40.648Z,83
2022-11-06T18:49:42.145Z,83
2022-11-06T18:54:44.123Z,83
2022-11-06T18:59:46.151Z,84
2022-11-06T19:04:47.789Z,83
2022-11-06T19:09:49.688Z,83
2022-11-06T19:14:51.065Z,82
2022-11-06T19:19:53.052Z,83
2022-11-06T19:24:54.645Z,82
2022-11-06T19:29:56.289Z,82
2022-11-06T19:34:57.665Z,83
2022-11-06T19:40:02.888Z,82
2022-11-06T19:45:01.298Z,82
2022-11-06T19:50:02.710Z,82
2022-11-06T19:55:24.522Z,83
2022-11-06T20:00:10.204Z,83
2022-11-06T20:05:07.228Z,83
2022-11-06T20:10:08.574Z,84
2022-11-06T20:15:10.437Z,84
2022-11-06T20:20:11.796Z,83
2022-11-06T20:25:13.393Z,83
2022-11-06T20:30:14.878Z,83
2022-11-06T20:35:16.420Z,83
2022-11-06T20:40:18.197Z,82
2022-11-06T20:45:20.302Z,82
2022-11-06T20:50:21.981Z,82
2022-11-06T20:55:23.288Z,81
2022-11-06T21:00:25.196Z,81
2022-11-06T21:05:26.839Z,81
2022-11-06T21:10:28.489Z,80
2022-11-06T21:15:30.602Z,80
2022-11-06T21:20:32.714Z,80
2022-11-06T21:25:34.605Z,80
2022-11-06T21:30:36.228Z,79
2022-11-06T21:35:37.741Z,80
2022-11-06T21:40:39.296Z,79
2022-11-06T21:45:40.298Z,79
2022-11-06T21:50:41.959Z,78
2022-11-06T21:55:43.264Z,78
2022-11-06T22:00:44.926Z,79
2022-11-06T22:05:46.991Z,78
2022-11-06T22:10:48.916Z,78
2022-11-06T22:15:50.604Z,78
2022-11-06T22:20:52.842Z,76
2022-11-06T22:25:54.342Z,76
2022-11-06T22:30:56.204Z,75
2022-11-06T22:35:57.815Z,75
2022-11-06T22:40:58.997Z,74
2022-11-06T22:46:00.114Z,73
2022-11-06T22:51:02.310Z,71
2022-11-06T22:56:03.744Z,71
2022-11-06T23:16:10.651Z,71
2022-11-06T23:21:11.811Z,71
2022-11-06T23:26:13.419Z,70
2022-11-06T23:31:14.975Z,70
